RYR50XY LFMU-EGGW
Flight info
| Callsign | RYR50XY |
|---|---|
| Flight time | 1h 48m |
| Altitude | 18000 |
| Route | AFRIC G39 GAI/N0447F380 DCT SECHE DCT UVELI DCT CNA DCT TUPAR UN861 DIKRO UM185 TELTU |
| Aircraft | B38M/M-SDE1FGHILORVWXY/HB1 |
Departure
| Time | 2026-05-07 10:51 |
|---|---|
| Airport | Béziers Vias airport (LFMU) |
Arrival
| Time | 2026-05-07 12:39 |
|---|---|
| Airport | London Luton Airport (EGGW) |
| Time | Latitude | Longitude | Altitude | Speed | Heading |
|---|---|---|---|---|---|
| 2026-05-07 10:10 | 43.32125 | 3.35343 | 58 ft | 0 kts | 184° |
| 2026-05-07 10:42 | 43.32141 | 3.35344 | 53 ft | 4 kts | 177° |
| 2026-05-07 10:42 | 43.32167 | 3.35338 | 57 ft | 4 kts | 159° |
| 2026-05-07 10:42 | 43.32190 | 3.35320 | 50 ft | 4 kts | 139° |
| 2026-05-07 10:43 | 43.32201 | 3.35305 | 53 ft | 1 kts | 131° |
| 2026-05-07 10:43 | 43.32203 | 3.35303 | 53 ft | 0 kts | 131° |
| 2026-05-07 10:47 | 43.32169 | 3.35388 | 58 ft | 15 kts | 108° |
| 2026-05-07 10:47 | 43.32144 | 3.35489 | 55 ft | 18 kts | 108° |
| 2026-05-07 10:47 | 43.32122 | 3.35668 | 50 ft | 20 kts | 95° |
| 2026-05-07 10:47 | 43.32153 | 3.35770 | 56 ft | 9 kts | 19° |
| 2026-05-07 10:48 | 43.32219 | 3.35781 | 56 ft | 11 kts | 4° |
| 2026-05-07 10:48 | 43.32306 | 3.35803 | 51 ft | 12 kts | 38° |
| 2026-05-07 10:48 | 43.32318 | 3.35888 | 54 ft | 10 kts | 95° |
| 2026-05-07 10:48 | 43.32309 | 3.35998 | 51 ft | 13 kts | 96° |
| 2026-05-07 10:49 | 43.32298 | 3.36152 | 50 ft | 18 kts | 95° |
| 2026-05-07 10:49 | 43.32287 | 3.36336 | 54 ft | 20 kts | 94° |
| 2026-05-07 10:49 | 43.32275 | 3.36534 | 53 ft | 22 kts | 94° |
| 2026-05-07 10:49 | 43.32240 | 3.36710 | 50 ft | 15 kts | 103° |
| 2026-05-07 10:50 | 43.32251 | 3.36734 | 52 ft | 1 kts | 353° |
| 2026-05-07 10:50 | 43.32261 | 3.36713 | 52 ft | 5 kts | 295° |
| 2026-05-07 10:50 | 43.32269 | 3.36626 | 51 ft | 16 kts | 274° |
| 2026-05-07 10:50 | 43.32300 | 3.36087 | 54 ft | 99 kts | 274° |
| 2026-05-07 10:51 | 43.32370 | 3.34820 | 91 ft | 164 kts | 274° |
| 2026-05-07 10:51 | 43.32533 | 3.33125 | 519 ft | 202 kts | 286° |
| 2026-05-07 10:51 | 43.33251 | 3.31384 | 993 ft | 207 kts | 307° |
| 2026-05-07 10:51 | 43.34250 | 3.30029 | 1415 ft | 198 kts | 317° |
| 2026-05-07 10:52 | 43.35327 | 3.28842 | 1606 ft | 198 kts | 324° |
| 2026-05-07 10:52 | 43.36542 | 3.28004 | 2102 ft | 203 kts | 334° |
| 2026-05-07 10:52 | 43.37882 | 3.27259 | 3203 ft | 207 kts | 335° |
| 2026-05-07 10:52 | 43.39161 | 3.26419 | 4327 ft | 208 kts | 329° |
| 2026-05-07 10:53 | 43.40465 | 3.25407 | 5155 ft | 225 kts | 327° |
| 2026-05-07 10:53 | 43.41858 | 3.24210 | 5863 ft | 245 kts | 324° |
| 2026-05-07 10:53 | 43.43324 | 3.22846 | 6639 ft | 262 kts | 323° |
| 2026-05-07 10:53 | 43.44828 | 3.21372 | 7654 ft | 265 kts | 322° |
| 2026-05-07 10:54 | 43.46310 | 3.19873 | 8648 ft | 271 kts | 321° |
| 2026-05-07 10:54 | 43.47835 | 3.18305 | 9685 ft | 275 kts | 320° |
| 2026-05-07 10:54 | 43.49382 | 3.16695 | 10543 ft | 286 kts | 320° |
| 2026-05-07 10:54 | 43.51014 | 3.14981 | 11115 ft | 303 kts | 320° |
| 2026-05-07 10:55 | 43.52725 | 3.13176 | 11798 ft | 315 kts | 320° |
| 2026-05-07 10:55 | 43.54480 | 3.11321 | 12731 ft | 318 kts | 320° |
| 2026-05-07 10:55 | 43.56247 | 3.09450 | 13632 ft | 323 kts | 320° |
| 2026-05-07 10:55 | 43.58047 | 3.07542 | 14428 ft | 328 kts | 320° |
| 2026-05-07 10:56 | 43.59842 | 3.05639 | 15207 ft | 331 kts | 320° |
| 2026-05-07 10:56 | 43.61677 | 3.03692 | 15993 ft | 334 kts | 319° |
| 2026-05-07 10:56 | 43.63529 | 3.01724 | 16763 ft | 336 kts | 319° |
| 2026-05-07 10:56 | 43.65392 | 2.99744 | 17510 ft | 339 kts | 319° |
| 2026-05-07 10:57 | 43.67274 | 2.97741 | 18074 ft | 346 kts | 319° |
| 2026-05-07 10:57 | 43.69184 | 2.95709 | 18191 ft | 345 kts | 319° |
| 2026-05-07 10:57 | 43.71061 | 2.93709 | 18213 ft | 344 kts | 319° |
| 2026-05-07 10:57 | 43.72958 | 2.91685 | 18200 ft | 344 kts | 319° |
| 2026-05-07 10:58 | 43.74857 | 2.89659 | 18205 ft | 343 kts | 319° |
| 2026-05-07 10:58 | 43.76626 | 2.87456 | 18190 ft | 339 kts | 305° |
| 2026-05-07 10:58 | 43.77694 | 2.84596 | 18206 ft | 335 kts | 285° |
| 2026-05-07 10:58 | 43.78322 | 2.81529 | 18199 ft | 336 kts | 284° |
| 2026-05-07 10:59 | 43.78948 | 2.78393 | 18202 ft | 337 kts | 284° |
| 2026-05-07 10:59 | 43.79557 | 2.75253 | 18286 ft | 339 kts | 284° |
| 2026-05-07 10:59 | 43.80157 | 2.72097 | 18940 ft | 339 kts | 283° |
| 2026-05-07 10:59 | 43.80745 | 2.68955 | 19559 ft | 342 kts | 283° |
| 2026-05-07 11:00 | 43.81341 | 2.65748 | 20169 ft | 345 kts | 283° |
| 2026-05-07 11:00 | 43.81938 | 2.62511 | 20791 ft | 348 kts | 283° |
| 2026-05-07 11:00 | 43.82539 | 2.59247 | 21412 ft | 350 kts | 283° |
| 2026-05-07 11:00 | 43.83107 | 2.55952 | 22022 ft | 353 kts | 283° |
| 2026-05-07 11:01 | 43.83669 | 2.52636 | 22626 ft | 355 kts | 283° |
| 2026-05-07 11:01 | 43.84231 | 2.49334 | 23208 ft | 358 kts | 283° |
| 2026-05-07 11:01 | 43.84806 | 2.45955 | 23766 ft | 360 kts | 283° |
| 2026-05-07 11:01 | 43.85383 | 2.42554 | 24253 ft | 362 kts | 283° |
| 2026-05-07 11:02 | 43.85961 | 2.39138 | 24728 ft | 365 kts | 282° |
| 2026-05-07 11:02 | 43.86535 | 2.35743 | 25180 ft | 367 kts | 282° |
| 2026-05-07 11:02 | 43.87120 | 2.32280 | 25643 ft | 370 kts | 282° |
| 2026-05-07 11:02 | 43.87708 | 2.28790 | 26085 ft | 372 kts | 282° |
| 2026-05-07 11:03 | 43.88299 | 2.25276 | 26532 ft | 375 kts | 281° |
| 2026-05-07 11:03 | 43.88891 | 2.21746 | 26948 ft | 378 kts | 281° |
| 2026-05-07 11:03 | 43.89490 | 2.18169 | 27371 ft | 380 kts | 281° |
| 2026-05-07 11:03 | 43.90082 | 2.14625 | 27763 ft | 383 kts | 281° |
| 2026-05-07 11:04 | 43.90685 | 2.11007 | 28161 ft | 386 kts | 281° |
| 2026-05-07 11:04 | 43.91293 | 2.07357 | 28537 ft | 389 kts | 281° |
| 2026-05-07 11:04 | 43.91904 | 2.03678 | 28911 ft | 392 kts | 280° |
| 2026-05-07 11:04 | 43.92518 | 1.99964 | 29251 ft | 396 kts | 280° |
| 2026-05-07 11:05 | 43.93127 | 1.96278 | 29674 ft | 397 kts | 280° |
| 2026-05-07 11:05 | 43.93746 | 1.92521 | 30025 ft | 400 kts | 280° |
| 2026-05-07 11:05 | 43.94369 | 1.88735 | 30319 ft | 403 kts | 280° |
| 2026-05-07 11:05 | 43.94992 | 1.84936 | 30607 ft | 406 kts | 280° |
| 2026-05-07 11:06 | 43.95826 | 1.81166 | 30887 ft | 412 kts | 292° |
| 2026-05-07 11:06 | 43.97232 | 1.77683 | 31224 ft | 415 kts | 295° |
| 2026-05-07 11:06 | 43.98582 | 1.74104 | 31441 ft | 418 kts | 294° |
| 2026-05-07 11:06 | 43.99903 | 1.70554 | 31731 ft | 420 kts | 294° |
| 2026-05-07 11:07 | 44.01263 | 1.66929 | 32018 ft | 423 kts | 294° |
| 2026-05-07 11:07 | 44.02629 | 1.63295 | 32289 ft | 425 kts | 294° |
| 2026-05-07 11:07 | 44.04007 | 1.59629 | 32554 ft | 428 kts | 295° |
| 2026-05-07 11:07 | 44.05373 | 1.55992 | 32807 ft | 430 kts | 295° |
| 2026-05-07 11:08 | 44.06765 | 1.52283 | 33060 ft | 432 kts | 295° |
| 2026-05-07 11:08 | 44.08160 | 1.48560 | 33335 ft | 434 kts | 295° |
| 2026-05-07 11:08 | 44.09557 | 1.44826 | 33679 ft | 434 kts | 295° |
| 2026-05-07 11:08 | 44.10934 | 1.41140 | 34023 ft | 434 kts | 295° |
| 2026-05-07 11:09 | 44.12327 | 1.37407 | 34323 ft | 434 kts | 295° |
| 2026-05-07 11:09 | 44.13718 | 1.33674 | 34605 ft | 435 kts | 295° |
| 2026-05-07 11:09 | 44.15113 | 1.29927 | 34878 ft | 435 kts | 295° |
| 2026-05-07 11:09 | 44.16506 | 1.26177 | 35151 ft | 435 kts | 295° |
| 2026-05-07 11:10 | 44.17898 | 1.22428 | 35418 ft | 435 kts | 295° |
| 2026-05-07 11:10 | 44.19291 | 1.18669 | 35694 ft | 436 kts | 295° |
| 2026-05-07 11:10 | 44.20679 | 1.14920 | 35960 ft | 436 kts | 295° |
| 2026-05-07 11:10 | 44.22067 | 1.11164 | 36223 ft | 436 kts | 295° |
| 2026-05-07 11:11 | 44.23439 | 1.07448 | 36472 ft | 436 kts | 295° |
| 2026-05-07 11:11 | 44.24828 | 1.03681 | 36721 ft | 436 kts | 295° |
| 2026-05-07 11:11 | 44.26214 | 0.99917 | 36970 ft | 436 kts | 295° |
| 2026-05-07 11:11 | 44.27597 | 0.96153 | 37206 ft | 436 kts | 295° |
| 2026-05-07 11:12 | 44.28983 | 0.92380 | 37442 ft | 436 kts | 295° |
| 2026-05-07 11:12 | 44.30367 | 0.88606 | 37682 ft | 436 kts | 295° |
| 2026-05-07 11:12 | 44.31750 | 0.84827 | 37878 ft | 437 kts | 294° |
| 2026-05-07 11:12 | 44.33131 | 0.81051 | 38021 ft | 437 kts | 294° |
| 2026-05-07 11:13 | 44.35896 | 0.73473 | 38016 ft | 436 kts | 294° |
| 2026-05-07 11:13 | 44.38629 | 0.65965 | 38017 ft | 436 kts | 294° |
| 2026-05-07 11:14 | 44.41379 | 0.58392 | 38015 ft | 436 kts | 294° |
| 2026-05-07 11:14 | 44.44906 | 0.51517 | 38016 ft | 442 kts | 320° |
| 2026-05-07 11:15 | 44.47546 | 0.49251 | 38016 ft | 448 kts | 332° |
| 2026-05-07 11:15 | 44.50334 | 0.47370 | 38013 ft | 450 kts | 330° |
| 2026-05-07 11:15 | 44.55992 | 0.43510 | 38022 ft | 451 kts | 331° |
| 2026-05-07 11:16 | 44.61633 | 0.39738 | 38027 ft | 451 kts | 332° |
| 2026-05-07 11:16 | 44.67321 | 0.35944 | 38022 ft | 451 kts | 332° |
| 2026-05-07 11:17 | 44.72968 | 0.32171 | 38024 ft | 451 kts | 332° |
| 2026-05-07 11:17 | 44.78037 | 0.28778 | 38023 ft | 451 kts | 332° |
| 2026-05-07 11:18 | 44.83713 | 0.24970 | 38020 ft | 451 kts | 332° |
| 2026-05-07 11:18 | 44.89385 | 0.21157 | 38024 ft | 451 kts | 332° |
| 2026-05-07 11:19 | 44.95062 | 0.17332 | 38023 ft | 451 kts | 332° |
| 2026-05-07 11:19 | 45.00701 | 0.13524 | 38015 ft | 451 kts | 332° |
| 2026-05-07 11:20 | 45.06372 | 0.09686 | 38017 ft | 451 kts | 332° |
| 2026-05-07 11:20 | 45.12006 | 0.05865 | 38013 ft | 451 kts | 332° |
| 2026-05-07 11:21 | 45.17673 | 0.02012 | 38009 ft | 451 kts | 332° |
| 2026-05-07 11:21 | 45.23338 | -0.01848 | 38009 ft | 451 kts | 332° |
| 2026-05-07 11:22 | 45.28976 | -0.05697 | 38019 ft | 451 kts | 332° |
| 2026-05-07 11:22 | 45.34633 | -0.09570 | 38002 ft | 450 kts | 332° |
| 2026-05-07 11:23 | 45.40284 | -0.13444 | 38004 ft | 451 kts | 332° |
| 2026-05-07 11:23 | 45.45900 | -0.17305 | 38012 ft | 451 kts | 332° |
| 2026-05-07 11:24 | 45.51554 | -0.21200 | 38017 ft | 450 kts | 332° |
| 2026-05-07 11:24 | 45.57213 | -0.25108 | 38022 ft | 450 kts | 332° |
| 2026-05-07 11:25 | 45.62824 | -0.28989 | 38021 ft | 450 kts | 332° |
| 2026-05-07 11:25 | 45.68640 | -0.32368 | 38030 ft | 452 kts | 342° |
| 2026-05-07 11:26 | 45.74622 | -0.35057 | 38022 ft | 453 kts | 340° |
| 2026-05-07 11:26 | 45.80626 | -0.37776 | 38015 ft | 452 kts | 340° |
| 2026-05-07 11:27 | 45.86645 | -0.40501 | 38018 ft | 453 kts | 340° |
| 2026-05-07 11:27 | 45.92647 | -0.43224 | 38006 ft | 452 kts | 340° |
| 2026-05-07 11:28 | 45.98627 | -0.45943 | 38008 ft | 453 kts | 340° |
| 2026-05-07 11:28 | 46.04648 | -0.48687 | 38002 ft | 452 kts | 340° |
| 2026-05-07 11:29 | 46.10626 | -0.51418 | 38009 ft | 452 kts | 340° |
| 2026-05-07 11:29 | 46.16626 | -0.54164 | 38005 ft | 452 kts | 340° |
| 2026-05-07 11:30 | 46.22628 | -0.56919 | 38004 ft | 452 kts | 340° |
| 2026-05-07 11:30 | 46.28636 | -0.59682 | 38009 ft | 452 kts | 340° |
| 2026-05-07 11:31 | 46.34605 | -0.62434 | 38007 ft | 452 kts | 340° |
| 2026-05-07 11:31 | 46.40611 | -0.65208 | 38009 ft | 452 kts | 340° |
| 2026-05-07 11:32 | 46.46763 | -0.66877 | 38015 ft | 454 kts | 352° |
| 2026-05-07 11:32 | 46.49906 | -0.67416 | 38002 ft | 454 kts | 351° |
| 2026-05-07 11:33 | 46.56173 | -0.68495 | 38015 ft | 455 kts | 351° |
| 2026-05-07 11:33 | 46.62485 | -0.69560 | 38006 ft | 455 kts | 352° |
| 2026-05-07 11:34 | 46.68771 | -0.70619 | 38014 ft | 455 kts | 352° |
| 2026-05-07 11:34 | 46.75075 | -0.71684 | 38010 ft | 455 kts | 351° |
| 2026-05-07 11:35 | 46.81330 | -0.72744 | 38014 ft | 455 kts | 352° |
| 2026-05-07 11:35 | 46.87622 | -0.73812 | 38013 ft | 455 kts | 352° |
| 2026-05-07 11:36 | 46.93917 | -0.74883 | 38018 ft | 455 kts | 352° |
| 2026-05-07 11:36 | 47.00167 | -0.75949 | 37976 ft | 455 kts | 351° |
| 2026-05-07 11:37 | 47.05431 | -0.76849 | 38026 ft | 458 kts | 351° |
| 2026-05-07 11:37 | 47.12808 | -0.78113 | 38020 ft | 457 kts | 351° |
| 2026-05-07 11:38 | 47.18101 | -0.79022 | 38020 ft | 457 kts | 351° |
| 2026-05-07 11:38 | 47.24436 | -0.80113 | 38021 ft | 457 kts | 351° |
| 2026-05-07 11:39 | 47.30720 | -0.81197 | 38030 ft | 457 kts | 351° |
| 2026-05-07 11:39 | 47.37056 | -0.82293 | 38019 ft | 457 kts | 351° |
| 2026-05-07 11:40 | 47.43385 | -0.83390 | 38028 ft | 457 kts | 351° |
| 2026-05-07 11:40 | 47.49679 | -0.84483 | 38026 ft | 457 kts | 351° |
| 2026-05-07 11:41 | 47.56028 | -0.85403 | 38031 ft | 458 kts | 353° |
| 2026-05-07 11:41 | 47.62386 | -0.86156 | 38034 ft | 458 kts | 353° |
| 2026-05-07 11:42 | 47.68696 | -0.86927 | 38040 ft | 458 kts | 353° |
| 2026-05-07 11:42 | 47.75050 | -0.87707 | 38037 ft | 457 kts | 353° |
| 2026-05-07 11:43 | 47.81413 | -0.88490 | 38045 ft | 457 kts | 353° |
| 2026-05-07 11:43 | 47.87711 | -0.89267 | 38047 ft | 457 kts | 353° |
| 2026-05-07 11:44 | 47.94063 | -0.90053 | 38047 ft | 457 kts | 353° |
| 2026-05-07 11:44 | 48.00407 | -0.90839 | 38049 ft | 457 kts | 353° |
| 2026-05-07 11:45 | 48.06744 | -0.91627 | 38050 ft | 457 kts | 353° |
| 2026-05-07 11:45 | 48.13100 | -0.92419 | 38047 ft | 457 kts | 353° |
| 2026-05-07 11:46 | 48.19408 | -0.93206 | 38048 ft | 457 kts | 353° |
| 2026-05-07 11:46 | 48.25757 | -0.94001 | 38051 ft | 457 kts | 353° |
| 2026-05-07 11:47 | 48.32096 | -0.94797 | 38049 ft | 457 kts | 353° |
| 2026-05-07 11:47 | 48.38438 | -0.95595 | 38049 ft | 457 kts | 353° |
| 2026-05-07 11:48 | 48.44751 | -0.96391 | 38050 ft | 457 kts | 353° |
| 2026-05-07 11:48 | 48.51099 | -0.97194 | 38048 ft | 456 kts | 353° |
| 2026-05-07 11:49 | 48.57399 | -0.97993 | 38046 ft | 456 kts | 353° |
| 2026-05-07 11:49 | 48.63753 | -0.98800 | 38050 ft | 456 kts | 353° |
| 2026-05-07 11:50 | 48.70041 | -0.99601 | 38047 ft | 456 kts | 353° |
| 2026-05-07 11:50 | 48.76382 | -1.00411 | 38051 ft | 456 kts | 353° |
| 2026-05-07 11:51 | 48.82680 | -1.01218 | 38048 ft | 456 kts | 353° |
| 2026-05-07 11:51 | 48.89008 | -1.02030 | 38051 ft | 456 kts | 353° |
| 2026-05-07 11:52 | 48.95347 | -1.02846 | 38049 ft | 456 kts | 353° |
| 2026-05-07 11:52 | 49.01623 | -1.03656 | 38052 ft | 455 kts | 353° |
| 2026-05-07 11:53 | 49.07960 | -1.04475 | 38056 ft | 456 kts | 353° |
| 2026-05-07 11:53 | 49.14282 | -1.05295 | 38055 ft | 456 kts | 353° |
| 2026-05-07 11:54 | 49.20563 | -1.06112 | 38055 ft | 455 kts | 353° |
| 2026-05-07 11:54 | 49.26882 | -1.06936 | 38061 ft | 455 kts | 353° |
| 2026-05-07 11:55 | 49.33208 | -1.07763 | 38057 ft | 455 kts | 353° |
| 2026-05-07 11:55 | 49.39489 | -1.08585 | 38054 ft | 455 kts | 353° |
| 2026-05-07 11:56 | 49.45815 | -1.09416 | 38057 ft | 455 kts | 353° |
| 2026-05-07 11:56 | 49.52127 | -1.10247 | 38051 ft | 455 kts | 353° |
| 2026-05-07 11:57 | 49.58415 | -1.09631 | 38046 ft | 456 kts | 19° |
| 2026-05-07 11:57 | 49.61222 | -1.07483 | 38053 ft | 458 kts | 34° |
| 2026-05-07 11:57 | 49.63803 | -1.04565 | 38032 ft | 461 kts | 36° |
| 2026-05-07 11:57 | 49.66374 | -1.01628 | 37559 ft | 456 kts | 36° |
| 2026-05-07 11:58 | 49.68902 | -0.98687 | 36994 ft | 454 kts | 37° |
| 2026-05-07 11:58 | 49.71412 | -0.95733 | 36477 ft | 450 kts | 37° |
| 2026-05-07 11:58 | 49.73911 | -0.92836 | 35953 ft | 447 kts | 33° |
| 2026-05-07 11:58 | 49.76674 | -0.90738 | 35350 ft | 442 kts | 13° |
| 2026-05-07 11:59 | 49.79687 | -0.90095 | 34895 ft | 434 kts | 0° |
| 2026-05-07 11:59 | 49.82686 | -0.89789 | 34472 ft | 430 kts | 4° |
| 2026-05-07 11:59 | 49.85622 | -0.89312 | 33978 ft | 428 kts | 4° |
| 2026-05-07 11:59 | 49.88587 | -0.88859 | 33391 ft | 426 kts | 3° |
| 2026-05-07 12:00 | 49.91529 | -0.88430 | 32883 ft | 423 kts | 3° |
| 2026-05-07 12:00 | 49.94453 | -0.88013 | 32422 ft | 419 kts | 3° |
| 2026-05-07 12:00 | 49.97349 | -0.87601 | 31958 ft | 415 kts | 2° |
| 2026-05-07 12:00 | 50.00185 | -0.87198 | 31480 ft | 413 kts | 2° |
| 2026-05-07 12:01 | 50.03041 | -0.86791 | 30964 ft | 411 kts | 2° |
| 2026-05-07 12:01 | 50.05887 | -0.86386 | 30534 ft | 408 kts | 2° |
| 2026-05-07 12:01 | 50.08700 | -0.85985 | 30094 ft | 405 kts | 2° |
| 2026-05-07 12:01 | 50.11509 | -0.85584 | 29586 ft | 402 kts | 2° |
| 2026-05-07 12:02 | 50.14253 | -0.85192 | 29138 ft | 398 kts | 2° |
| 2026-05-07 12:02 | 50.17004 | -0.84798 | 28718 ft | 394 kts | 2° |
| 2026-05-07 12:02 | 50.19723 | -0.84409 | 28303 ft | 390 kts | 2° |
| 2026-05-07 12:02 | 50.22416 | -0.84022 | 27880 ft | 387 kts | 2° |
| 2026-05-07 12:03 | 50.25082 | -0.83640 | 27472 ft | 383 kts | 3° |
| 2026-05-07 12:03 | 50.27732 | -0.83259 | 27069 ft | 380 kts | 3° |
| 2026-05-07 12:03 | 50.30360 | -0.82881 | 26663 ft | 377 kts | 3° |
| 2026-05-07 12:03 | 50.32970 | -0.82505 | 26247 ft | 376 kts | 3° |
| 2026-05-07 12:04 | 50.35568 | -0.82130 | 25846 ft | 373 kts | 3° |
| 2026-05-07 12:04 | 50.38108 | -0.81763 | 25484 ft | 366 kts | 3° |
| 2026-05-07 12:04 | 50.40613 | -0.81401 | 25123 ft | 355 kts | 3° |
| 2026-05-07 12:04 | 50.43068 | -0.81045 | 24765 ft | 353 kts | 3° |
| 2026-05-07 12:05 | 50.45515 | -0.80691 | 24397 ft | 352 kts | 3° |
| 2026-05-07 12:05 | 50.47949 | -0.80337 | 24027 ft | 350 kts | 3° |
| 2026-05-07 12:05 | 50.50341 | -0.79990 | 23674 ft | 349 kts | 3° |
| 2026-05-07 12:05 | 50.52765 | -0.79638 | 23248 ft | 348 kts | 3° |
| 2026-05-07 12:06 | 50.55182 | -0.79286 | 22858 ft | 346 kts | 3° |
| 2026-05-07 12:06 | 50.57545 | -0.78942 | 22499 ft | 343 kts | 3° |
| 2026-05-07 12:06 | 50.59911 | -0.78597 | 22146 ft | 340 kts | 3° |
| 2026-05-07 12:06 | 50.62251 | -0.78255 | 21768 ft | 338 kts | 3° |
| 2026-05-07 12:07 | 50.64597 | -0.77912 | 21381 ft | 337 kts | 3° |
| 2026-05-07 12:07 | 50.66930 | -0.77571 | 21049 ft | 334 kts | 4° |
| 2026-05-07 12:07 | 50.69206 | -0.77238 | 20722 ft | 331 kts | 4° |
| 2026-05-07 12:07 | 50.71489 | -0.76904 | 20380 ft | 329 kts | 4° |
| 2026-05-07 12:08 | 50.73767 | -0.76570 | 20042 ft | 326 kts | 4° |
| 2026-05-07 12:08 | 50.76027 | -0.76238 | 19704 ft | 325 kts | 4° |
| 2026-05-07 12:08 | 50.78275 | -0.75907 | 19370 ft | 323 kts | 4° |
| 2026-05-07 12:08 | 50.80475 | -0.75560 | 19126 ft | 319 kts | 7° |
| 2026-05-07 12:09 | 50.82617 | -0.74552 | 19001 ft | 325 kts | 22° |
| 2026-05-07 12:09 | 50.84715 | -0.73164 | 18888 ft | 327 kts | 21° |
| 2026-05-07 12:09 | 50.86827 | -0.71806 | 18785 ft | 327 kts | 21° |
| 2026-05-07 12:09 | 50.88938 | -0.70450 | 18704 ft | 327 kts | 21° |
| 2026-05-07 12:10 | 50.91042 | -0.69094 | 18603 ft | 326 kts | 21° |
| 2026-05-07 12:10 | 50.93110 | -0.67760 | 18505 ft | 326 kts | 21° |
| 2026-05-07 12:10 | 50.95207 | -0.66405 | 18413 ft | 325 kts | 21° |
| 2026-05-07 12:10 | 50.97307 | -0.65048 | 18307 ft | 325 kts | 21° |
| 2026-05-07 12:11 | 50.99372 | -0.63711 | 18207 ft | 324 kts | 21° |
| 2026-05-07 12:11 | 51.01050 | -0.62624 | 18125 ft | 324 kts | 21° |
| 2026-05-07 12:11 | 51.01756 | -0.62167 | 18091 ft | 323 kts | 21° |
| 2026-05-07 12:11 | 51.02607 | -0.61615 | 18040 ft | 323 kts | 21° |
| 2026-05-07 12:12 | 51.04691 | -0.60264 | 17945 ft | 323 kts | 21° |
| 2026-05-07 12:12 | 51.06769 | -0.58916 | 17851 ft | 322 kts | 21° |
| 2026-05-07 12:12 | 51.08644 | -0.57697 | 17763 ft | 322 kts | 21° |
| 2026-05-07 12:12 | 51.10546 | -0.56461 | 17669 ft | 321 kts | 21° |
| 2026-05-07 12:13 | 51.12618 | -0.55111 | 17580 ft | 321 kts | 21° |
| 2026-05-07 12:13 | 51.14650 | -0.53786 | 17541 ft | 311 kts | 21° |
| 2026-05-07 12:13 | 51.16617 | -0.52503 | 17498 ft | 299 kts | 21° |
| 2026-05-07 12:13 | 51.18551 | -0.51241 | 17441 ft | 307 kts | 22° |
| 2026-05-07 12:14 | 51.20547 | -0.49937 | 17371 ft | 314 kts | 22° |
| 2026-05-07 12:14 | 51.22585 | -0.48604 | 17315 ft | 318 kts | 22° |
| 2026-05-07 12:14 | 51.24612 | -0.47276 | 17263 ft | 319 kts | 22° |
| 2026-05-07 12:14 | 51.26662 | -0.45932 | 17212 ft | 318 kts | 22° |
| 2026-05-07 12:15 | 51.28706 | -0.44591 | 17179 ft | 318 kts | 22° |
| 2026-05-07 12:15 | 51.30754 | -0.43246 | 17130 ft | 318 kts | 22° |
| 2026-05-07 12:15 | 51.32800 | -0.41901 | 17080 ft | 317 kts | 22° |
| 2026-05-07 12:15 | 51.34845 | -0.40555 | 17021 ft | 317 kts | 22° |
| 2026-05-07 12:16 | 51.36891 | -0.39208 | 16983 ft | 317 kts | 22° |
| 2026-05-07 12:16 | 51.38925 | -0.37868 | 16927 ft | 316 kts | 22° |
| 2026-05-07 12:16 | 51.40960 | -0.36524 | 16873 ft | 316 kts | 22° |
| 2026-05-07 12:16 | 51.42985 | -0.35184 | 16828 ft | 315 kts | 23° |
| 2026-05-07 12:17 | 51.44978 | -0.33674 | 16786 ft | 315 kts | 25° |
| 2026-05-07 12:17 | 51.46959 | -0.32149 | 16722 ft | 315 kts | 25° |
| 2026-05-07 12:17 | 51.48934 | -0.30639 | 16666 ft | 314 kts | 25° |
| 2026-05-07 12:17 | 51.50860 | -0.29171 | 16616 ft | 314 kts | 25° |
| 2026-05-07 12:18 | 51.52837 | -0.27664 | 16554 ft | 314 kts | 25° |
| 2026-05-07 12:18 | 51.54807 | -0.26161 | 16508 ft | 313 kts | 25° |
| 2026-05-07 12:18 | 51.56783 | -0.24652 | 16450 ft | 313 kts | 25° |
| 2026-05-07 12:18 | 51.58747 | -0.23152 | 16337 ft | 313 kts | 25° |
| 2026-05-07 12:19 | 51.60633 | -0.21709 | 16074 ft | 313 kts | 25° |
| 2026-05-07 12:19 | 51.62609 | -0.20197 | 15773 ft | 312 kts | 25° |
| 2026-05-07 12:19 | 51.64564 | -0.18700 | 15479 ft | 311 kts | 25° |
| 2026-05-07 12:19 | 51.66501 | -0.17214 | 15177 ft | 311 kts | 25° |
| 2026-05-07 12:20 | 51.68453 | -0.15710 | 14865 ft | 309 kts | 26° |
| 2026-05-07 12:20 | 51.70395 | -0.14211 | 14518 ft | 309 kts | 26° |
| 2026-05-07 12:20 | 51.72295 | -0.12743 | 14201 ft | 307 kts | 26° |
| 2026-05-07 12:20 | 51.74213 | -0.11249 | 13867 ft | 306 kts | 28° |
| 2026-05-07 12:21 | 51.75894 | -0.09184 | 13448 ft | 305 kts | 48° |
| 2026-05-07 12:21 | 51.77328 | -0.06695 | 13116 ft | 302 kts | 46° |
| 2026-05-07 12:21 | 51.78790 | -0.04255 | 12805 ft | 299 kts | 46° |
| 2026-05-07 12:21 | 51.80215 | -0.01872 | 12484 ft | 297 kts | 46° |
| 2026-05-07 12:22 | 51.81647 | 0.00532 | 12163 ft | 295 kts | 47° |
| 2026-05-07 12:22 | 51.83067 | 0.02919 | 11836 ft | 294 kts | 47° |
| 2026-05-07 12:22 | 51.84479 | 0.05298 | 11506 ft | 292 kts | 47° |
| 2026-05-07 12:22 | 51.85886 | 0.07668 | 11193 ft | 290 kts | 47° |
| 2026-05-07 12:23 | 51.87267 | 0.09999 | 10876 ft | 289 kts | 47° |
| 2026-05-07 12:23 | 51.88659 | 0.12335 | 10558 ft | 288 kts | 44° |
| 2026-05-07 12:23 | 51.90318 | 0.14123 | 10176 ft | 288 kts | 19° |
| 2026-05-07 12:23 | 51.92296 | 0.14489 | 9832 ft | 286 kts | 352° |
| 2026-05-07 12:24 | 51.94148 | 0.13419 | 9512 ft | 283 kts | 327° |
| 2026-05-07 12:24 | 51.95148 | 0.12085 | 9318 ft | 280 kts | 312° |
| 2026-05-07 12:24 | 51.96835 | 0.08949 | 8903 ft | 277 kts | 310° |
| 2026-05-07 12:24 | 51.98085 | 0.06577 | 8596 ft | 275 kts | 309° |
| 2026-05-07 12:25 | 51.99320 | 0.04210 | 8277 ft | 273 kts | 309° |
| 2026-05-07 12:25 | 52.00127 | 0.02650 | 8085 ft | 272 kts | 309° |
| 2026-05-07 12:25 | 52.01342 | 0.00292 | 7784 ft | 271 kts | 309° |
| 2026-05-07 12:25 | 52.02542 | -0.02049 | 7507 ft | 270 kts | 308° |
| 2026-05-07 12:26 | 52.03747 | -0.04407 | 7184 ft | 269 kts | 308° |
| 2026-05-07 12:26 | 52.04941 | -0.06747 | 6889 ft | 269 kts | 308° |
| 2026-05-07 12:26 | 52.06131 | -0.09084 | 6582 ft | 268 kts | 308° |
| 2026-05-07 12:26 | 52.07305 | -0.11390 | 6283 ft | 267 kts | 308° |
| 2026-05-07 12:27 | 52.08418 | -0.13783 | 6029 ft | 263 kts | 296° |
| 2026-05-07 12:27 | 52.08859 | -0.16622 | 5822 ft | 260 kts | 267° |
| 2026-05-07 12:27 | 52.08454 | -0.19446 | 5638 ft | 256 kts | 241° |
| 2026-05-07 12:27 | 52.07437 | -0.21799 | 5461 ft | 255 kts | 228° |
| 2026-05-07 12:28 | 52.06295 | -0.24009 | 5298 ft | 255 kts | 228° |
| 2026-05-07 12:28 | 52.05156 | -0.26165 | 5128 ft | 254 kts | 227° |
| 2026-05-07 12:28 | 52.03996 | -0.28329 | 5025 ft | 253 kts | 227° |
| 2026-05-07 12:28 | 52.02834 | -0.30479 | 4996 ft | 253 kts | 227° |
| 2026-05-07 12:29 | 52.01661 | -0.32629 | 4992 ft | 254 kts | 227° |
| 2026-05-07 12:29 | 52.00485 | -0.34775 | 4994 ft | 253 kts | 227° |
| 2026-05-07 12:29 | 51.99546 | -0.37185 | 4983 ft | 254 kts | 249° |
| 2026-05-07 12:29 | 51.99042 | -0.39910 | 4991 ft | 256 kts | 252° |
| 2026-05-07 12:30 | 51.98532 | -0.42684 | 5001 ft | 256 kts | 252° |
| 2026-05-07 12:30 | 51.97880 | -0.45357 | 4994 ft | 253 kts | 234° |
| 2026-05-07 12:30 | 51.96800 | -0.47602 | 4990 ft | 253 kts | 230° |
| 2026-05-07 12:30 | 51.95707 | -0.49841 | 4986 ft | 253 kts | 230° |
| 2026-05-07 12:31 | 51.94616 | -0.52090 | 4990 ft | 254 kts | 230° |
| 2026-05-07 12:31 | 51.93521 | -0.54346 | 5007 ft | 254 kts | 230° |
| 2026-05-07 12:31 | 51.92430 | -0.56596 | 4972 ft | 254 kts | 230° |
| 2026-05-07 12:31 | 51.91351 | -0.58816 | 4974 ft | 253 kts | 230° |
| 2026-05-07 12:32 | 51.90298 | -0.61097 | 4988 ft | 254 kts | 240° |
| 2026-05-07 12:32 | 51.89709 | -0.63804 | 5004 ft | 253 kts | 253° |
| 2026-05-07 12:32 | 51.89240 | -0.66479 | 4981 ft | 240 kts | 253° |
| 2026-05-07 12:32 | 51.88791 | -0.69007 | 4988 ft | 227 kts | 253° |
| 2026-05-07 12:33 | 51.87860 | -0.73706 | 4880 ft | 216 kts | 236° |
| 2026-05-07 12:33 | 51.86722 | -0.75167 | 4652 ft | 211 kts | 195° |
| 2026-05-07 12:33 | 51.85296 | -0.75158 | 4533 ft | 203 kts | 165° |
| 2026-05-07 12:34 | 51.83973 | -0.74558 | 4373 ft | 197 kts | 164° |
| 2026-05-07 12:34 | 51.82708 | -0.73799 | 4152 ft | 193 kts | 145° |
| 2026-05-07 12:34 | 51.81877 | -0.72163 | 3934 ft | 190 kts | 111° |
| 2026-05-07 12:34 | 51.81772 | -0.70053 | 3750 ft | 192 kts | 80° |
| 2026-05-07 12:35 | 51.82103 | -0.67946 | 3626 ft | 194 kts | 76° |
| 2026-05-07 12:35 | 51.82460 | -0.65844 | 3446 ft | 194 kts | 75° |
| 2026-05-07 12:35 | 51.82819 | -0.63741 | 3254 ft | 194 kts | 76° |
| 2026-05-07 12:35 | 51.83180 | -0.61642 | 3043 ft | 192 kts | 76° |
| 2026-05-07 12:36 | 51.83530 | -0.59608 | 2895 ft | 184 kts | 76° |
| 2026-05-07 12:36 | 51.83867 | -0.57666 | 2716 ft | 178 kts | 76° |
| 2026-05-07 12:36 | 51.84196 | -0.55763 | 2515 ft | 173 kts | 76° |
| 2026-05-07 12:36 | 51.84519 | -0.53908 | 2379 ft | 169 kts | 76° |
| 2026-05-07 12:37 | 51.84834 | -0.52075 | 2168 ft | 169 kts | 76° |
| 2026-05-07 12:37 | 51.85142 | -0.50269 | 2013 ft | 167 kts | 76° |
| 2026-05-07 12:37 | 51.85458 | -0.48485 | 1837 ft | 164 kts | 76° |
| 2026-05-07 12:37 | 51.85762 | -0.46726 | 1651 ft | 159 kts | 77° |
| 2026-05-07 12:38 | 51.86047 | -0.45046 | 1455 ft | 151 kts | 76° |
| 2026-05-07 12:38 | 51.86316 | -0.43469 | 1254 ft | 146 kts | 76° |
| 2026-05-07 12:38 | 51.86591 | -0.41887 | 1014 ft | 142 kts | 75° |
| 2026-05-07 12:38 | 51.86860 | -0.40346 | 842 ft | 141 kts | 74° |
| 2026-05-07 12:39 | 51.87086 | -0.39045 | 643 ft | 139 kts | 75° |
| 2026-05-07 12:39 | 51.87337 | -0.37585 | 524 ft | 124 kts | 74° |
| 2026-05-07 12:39 | 51.87507 | -0.36596 | 528 ft | 65 kts | 74° |
| 2026-05-07 12:39 | 51.87603 | -0.36049 | 518 ft | 44 kts | 74° |
| 2026-05-07 12:40 | 51.87681 | -0.35925 | 519 ft | 13 kts | 352° |
| 2026-05-07 12:40 | 51.87766 | -0.35995 | 519 ft | 15 kts | 302° |
| 2026-05-07 12:40 | 51.87769 | -0.36145 | 522 ft | 14 kts | 256° |
| 2026-05-07 12:40 | 51.87742 | -0.36311 | 521 ft | 17 kts | 254° |
| 2026-05-07 12:41 | 51.87710 | -0.36499 | 522 ft | 18 kts | 255° |
| 2026-05-07 12:41 | 51.87676 | -0.36699 | 525 ft | 19 kts | 254° |
| 2026-05-07 12:41 | 51.87641 | -0.36900 | 530 ft | 18 kts | 255° |
| 2026-05-07 12:41 | 51.87606 | -0.37106 | 524 ft | 8 kts | 254° |
| 2026-05-07 12:42 | 51.87588 | -0.37208 | 524 ft | 11 kts | 254° |
| 2026-05-07 12:42 | 51.87578 | -0.37342 | 524 ft | 14 kts | 278° |
| 2026-05-07 12:42 | 51.87666 | -0.37509 | 530 ft | 26 kts | 318° |
| 2026-05-07 12:42 | 51.87754 | -0.37761 | 526 ft | 21 kts | 293° |
| 2026-05-07 12:43 | 51.87775 | -0.37829 | 526 ft | 7 kts | 297° |
| 2026-05-07 12:43 | 51.87800 | -0.37910 | 526 ft | 9 kts | 298° |
| 2026-05-07 12:43 | 51.87850 | -0.37994 | 526 ft | 12 kts | 327° |
| 2026-05-07 12:43 | 51.87930 | -0.38021 | 526 ft | 10 kts | 11° |
| 2026-05-07 12:44 | 51.87983 | -0.37973 | 526 ft | 4 kts | 60° |
| 2026-05-07 12:44 | 51.87982 | -0.37956 | 526 ft | 1 kts | 123° |
| 2026-05-07 12:44 | 51.87969 | -0.37929 | 526 ft | 3 kts | 126° |
| 2026-05-07 12:44 | 51.87962 | -0.37913 | 526 ft | 2 kts | 127° |
| 2026-05-07 12:45 | 51.87959 | -0.37906 | 526 ft | 1 kts | 127° |
| 2026-05-07 12:45 | 51.87958 | -0.37904 | 526 ft | 0 kts | 127° |